createdAt,value
2022-10-05T00:00:48.430Z,8.82
2022-10-05T00:03:15.922Z,7.88
2022-10-05T00:05:44.949Z,9.10
2022-10-05T00:08:18.127Z,10.82
2022-10-05T00:10:45.941Z,10.50
2022-10-05T00:13:21.746Z,8.40
2022-10-05T00:15:49.524Z,10.48
2022-10-05T00:18:19.116Z,9.13
2022-10-05T00:20:47.398Z,8.40
2022-10-05T00:23:35.094Z,7.80
2022-10-05T00:26:06.964Z,7.95
2022-10-05T00:28:34.611Z,10.15
2022-10-05T00:31:01.983Z,8.57
2022-10-05T00:33:29.677Z,8.02
2022-10-05T00:35:57.714Z,9.73
2022-10-05T00:38:25.189Z,10.95
2022-10-05T00:40:58.597Z,8.88
2022-10-05T00:43:44.822Z,10.17
2022-10-05T00:46:17.219Z,10.38
2022-10-05T00:49:05.173Z,9.57
2022-10-05T00:51:36.714Z,11.77
2022-10-05T00:54:19.823Z,12.32
2022-10-05T00:57:06.604Z,13.70
2022-10-05T01:00:06.883Z,6.72
2022-10-05T01:02:50.568Z,10.30
2022-10-05T01:05:41.769Z,10.90
2022-10-05T01:08:09.369Z,9.60
2022-10-05T01:10:38.940Z,12.63
2022-10-05T01:13:16.004Z,12.52
2022-10-05T01:15:48.154Z,15.77
2022-10-05T01:18:39.216Z,13.27
2022-10-05T01:21:24.788Z,8.70
2022-10-05T01:24:12.388Z,8.53
2022-10-05T01:26:56.762Z,10.40
2022-10-05T01:29:30.455Z,16.05
2022-10-05T01:32:29.394Z,19.50
2022-10-05T01:35:20.621Z,23.55
2022-10-05T01:37:48.077Z,25.43
2022-10-05T01:40:44.826Z,24.45
2022-10-05T01:43:38.043Z,22.85
2022-10-05T01:46:26.376Z,22.58
2022-10-05T01:49:08.940Z,13.75
2022-10-05T01:51:45.103Z,10.57
2022-10-05T01:54:46.509Z,8.73
2022-10-05T01:57:20.251Z,10.18
2022-10-05T02:00:03.699Z,10.07
2022-10-05T02:02:58.745Z,13.82
2022-10-05T02:05:56.878Z,10.30
2022-10-05T02:08:35.372Z,9.93
2022-10-05T02:11:06.862Z,10.43
2022-10-05T02:13:39.280Z,10.43
2022-10-05T02:16:21.586Z,9.52
2022-10-05T02:18:58.667Z,10.10
2022-10-05T02:21:26.127Z,11.13
2022-10-05T02:23:54.894Z,10.98
2022-10-05T02:26:24.645Z,15.45
2022-10-05T02:29:06.204Z,13.25
2022-10-05T02:31:41.829Z,13.83
2022-10-05T02:34:32.717Z,8.32
2022-10-05T02:37:26.187Z,9.52
2022-10-05T02:39:57.455Z,12.48
2022-10-05T02:42:45.683Z,10.73
2022-10-05T02:45:24.386Z,8.63
2022-10-05T02:47:55.736Z,8.23
2022-10-05T02:50:45.396Z,9.30
2022-10-05T02:53:27.935Z,8.75
2022-10-05T02:56:07.227Z,10.18
2022-10-05T02:58:45.464Z,8.27
2022-10-05T03:01:32.556Z,9.05
2022-10-05T03:04:12.376Z,6.72
2022-10-05T03:06:56.319Z,9.75
2022-10-05T03:09:24.320Z,7.32
2022-10-05T03:11:58.773Z,8.73
2022-10-05T03:14:30.554Z,8.30
2022-10-05T03:17:16.096Z,7.55
2022-10-05T03:19:49.547Z,7.25
2022-10-05T03:23:05.467Z,10.48
2022-10-05T03:25:44.927Z,9.00
2022-10-05T03:28:23.583Z,9.30
2022-10-05T03:31:13.103Z,12.35
2022-10-05T03:33:47.060Z,7.75
2022-10-05T03:36:41.784Z,7.45
2022-10-05T03:39:16.268Z,7.83
2022-10-05T03:41:51.781Z,7.90
2022-10-05T03:44:41.384Z,9.85
2022-10-05T03:47:19.508Z,7.38
2022-10-05T03:49:51.028Z,10.15
2022-10-05T03:52:52.744Z,7.20
2022-10-05T03:55:44.218Z,7.93
2022-10-05T03:58:38.074Z,10.20
2022-10-05T04:01:09.405Z,10.60
2022-10-05T04:03:46.094Z,10.18
2022-10-05T04:06:16.937Z,8.50
2022-10-05T04:08:52.471Z,13.30
2022-10-05T04:11:45.017Z,28.25
2022-10-05T04:14:17.012Z,28.65
2022-10-05T04:16:50.097Z,22.75
2022-10-05T04:19:38.069Z,22.27
2022-10-05T04:22:25.586Z,15.10
2022-10-05T04:25:03.809Z,12.75
2022-10-05T04:27:33.268Z,11.40
2022-10-05T04:30:11.912Z,11.15
2022-10-05T04:32:45.052Z,11.63
2022-10-05T04:35:35.026Z,11.23
2022-10-05T04:38:42.981Z,13.55
2022-10-05T04:41:29.492Z,8.98
2022-10-05T04:44:03.766Z,9.20
2022-10-05T04:46:53.057Z,7.17
2022-10-05T04:49:42.414Z,9.35
2022-10-05T04:52:23.560Z,9.35
2022-10-05T04:55:05.102Z,13.00
2022-10-05T04:57:57.869Z,7.25
2022-10-05T05:00:28.534Z,7.90
2022-10-05T05:03:31.897Z,7.72
2022-10-05T05:06:23.035Z,8.98
2022-10-05T05:09:15.640Z,6.72
2022-10-05T05:12:20.219Z,6.93
2022-10-05T05:15:13.217Z,8.87
2022-10-05T05:18:07.588Z,8.07
2022-10-05T05:21:13.490Z,7.18
2022-10-05T05:24:05.337Z,9.57
2022-10-05T05:26:43.958Z,7.38
2022-10-05T05:29:18.761Z,9.23
2022-10-05T05:31:58.230Z,10.95
2022-10-05T05:34:33.433Z,9.38
2022-10-05T05:37:07.234Z,12.13
2022-10-05T05:39:57.811Z,8.40
2022-10-05T05:42:34.918Z,10.10
2022-10-05T05:45:23.782Z,10.57
2022-10-05T05:48:02.223Z,14.15
2022-10-05T05:50:46.692Z,10.35
2022-10-05T05:53:21.814Z,14.10
2022-10-05T05:56:00.946Z,9.27
2022-10-05T05:58:55.235Z,13.50
2022-10-05T06:01:43.433Z,9.50
2022-10-05T06:04:52.869Z,10.95
2022-10-05T06:07:32.462Z,11.02
2022-10-05T06:10:31.914Z,13.82
2022-10-05T06:13:12.209Z,8.90
2022-10-05T06:15:51.390Z,10.52
2022-10-05T06:18:22.022Z,10.68
2022-10-05T06:21:02.099Z,8.30
2022-10-05T06:23:41.564Z,8.65
2022-10-05T06:26:52.767Z,11.33
2022-10-05T06:29:25.497Z,10.90
2022-10-05T06:32:10.169Z,11.52
2022-10-05T06:34:58.220Z,10.13
2022-10-05T06:37:36.844Z,8.48
2022-10-05T06:40:11.604Z,7.77
2022-10-05T06:42:45.061Z,9.82
2022-10-05T06:46:09.305Z,9.32
2022-10-05T06:49:03.465Z,7.05
2022-10-05T06:56:02.244Z,8.03
2022-10-05T06:58:49.607Z,9.93
2022-10-05T07:02:37.719Z,11.52
2022-10-05T07:05:39.840Z,8.20
2022-10-05T07:08:19.004Z,8.02
2022-10-05T07:14:54.489Z,9.18
2022-10-05T07:17:27.070Z,12.57
2022-10-05T07:20:24.015Z,9.45
2022-10-05T07:22:57.849Z,10.52
2022-10-05T07:25:37.054Z,7.37
2022-10-05T07:28:39.057Z,9.07
2022-10-05T07:31:49.123Z,7.72
2022-10-05T07:34:41.706Z,9.57
2022-10-05T07:37:57.315Z,10.43
2022-10-05T07:40:45.558Z,8.15
2022-10-05T07:44:00.545Z,7.15
2022-10-05T07:46:44.553Z,10.47
2022-10-05T07:49:23.847Z,9.63
2022-10-05T07:52:10.086Z,9.98
2022-10-05T07:55:17.041Z,8.25
2022-10-05T07:58:18.575Z,9.05
2022-10-05T08:01:00.485Z,6.50
2022-10-05T08:03:35.788Z,8.50
2022-10-05T08:06:05.671Z,8.45
2022-10-05T08:08:59.226Z,10.15
2022-10-05T08:11:49.368Z,11.23
2022-10-05T08:15:01.774Z,10.80
2022-10-05T08:17:41.310Z,8.25
2022-10-05T08:20:22.941Z,8.70
2022-10-05T08:23:20.841Z,8.32
2022-10-05T08:26:27.418Z,8.02
2022-10-05T08:29:15.588Z,6.87
2022-10-05T08:31:46.492Z,10.05
2022-10-05T08:34:30.556Z,8.70
2022-10-05T08:37:06.473Z,7.53
2022-10-05T08:39:58.227Z,7.07
2022-10-05T08:42:51.928Z,8.53
2022-10-05T08:45:48.294Z,6.90
2022-10-05T08:48:50.108Z,7.10
2022-10-05T08:51:54.728Z,7.70
2022-10-05T08:55:15.243Z,10.05
2022-10-05T08:58:04.156Z,7.10
2022-10-05T09:00:35.995Z,9.32
2022-10-05T09:03:34.450Z,9.35
2022-10-05T09:06:26.930Z,8.45
2022-10-05T09:09:23.705Z,10.50
2022-10-05T09:12:08.736Z,7.47
2022-10-05T09:14:56.609Z,10.52
2022-10-05T09:17:48.372Z,9.50
2022-10-05T09:20:49.305Z,7.82
2022-10-05T09:23:46.517Z,8.98
2022-10-05T09:27:03.162Z,7.80
2022-10-05T09:30:09.522Z,9.00
2022-10-05T09:33:31.102Z,7.97
2022-10-05T09:36:27.764Z,9.25
2022-10-05T09:39:32.398Z,9.23
2022-10-05T09:42:12.499Z,7.07
2022-10-05T09:45:02.226Z,8.27
2022-10-05T09:47:50.285Z,8.40
2022-10-05T09:50:43.493Z,8.20
2022-10-05T09:57:55.809Z,8.07
2022-10-05T10:00:47.065Z,7.80
2022-10-05T10:03:48.906Z,6.63
2022-10-05T10:06:56.723Z,7.00
2022-10-05T10:09:51.069Z,6.57
2022-10-05T10:12:35.981Z,7.73
2022-10-05T10:15:09.736Z,6.47
2022-10-05T10:18:15.990Z,5.45
2022-10-05T10:21:21.104Z,9.32
2022-10-05T10:24:11.699Z,6.78
2022-10-05T10:27:52.226Z,7.07
2022-10-05T10:31:25.373Z,8.18
2022-10-05T10:34:36.283Z,9.25
2022-10-05T10:37:42.753Z,10.25
2022-10-05T10:40:26.257Z,6.03
2022-10-05T10:52:33.012Z,6.45
2022-10-05T10:55:09.018Z,9.25
2022-10-05T11:06:59.801Z,9.23
2022-10-05T11:09:54.554Z,6.03
2022-10-05T11:13:06.123Z,5.88
2022-10-05T11:15:47.282Z,7.53
2022-10-05T11:18:29.455Z,6.97
2022-10-05T11:21:26.423Z,7.35
2022-10-05T11:24:19.442Z,6.10
2022-10-05T11:27:27.931Z,6.60
2022-10-05T11:30:19.995Z,6.38
2022-10-05T11:33:17.710Z,7.07
2022-10-05T11:36:18.321Z,9.73
2022-10-05T11:43:13.104Z,8.45
2022-10-05T11:45:46.384Z,6.90
2022-10-05T11:48:55.719Z,6.97
2022-10-05T11:52:01.629Z,8.13
2022-10-05T11:55:11.660Z,8.95
2022-10-05T11:57:59.353Z,8.40
2022-10-05T12:00:41.755Z,6.38
2022-10-05T12:03:37.870Z,5.20
2022-10-05T12:06:39.181Z,8.13
2022-10-05T12:09:39.245Z,7.85
2022-10-05T12:12:18.114Z,8.13
2022-10-05T12:15:00.561Z,9.23
2022-10-05T12:17:36.049Z,6.63
2022-10-05T12:20:31.651Z,8.80
2022-10-05T12:23:21.447Z,7.40
2022-10-05T12:26:04.019Z,6.75
2022-10-05T12:28:43.223Z,9.45
2022-10-05T12:31:17.494Z,6.70
2022-10-05T12:34:19.483Z,10.82
2022-10-05T12:37:04.503Z,8.60
2022-10-05T12:39:53.753Z,6.63
2022-10-05T12:42:28.204Z,6.43
2022-10-05T12:45:09.996Z,6.20
2022-10-05T12:47:54.117Z,8.77
2022-10-05T12:50:29.328Z,6.40
2022-10-05T12:53:06.279Z,8.40
2022-10-05T12:55:53.590Z,6.70
2022-10-05T12:58:23.481Z,8.33
2022-10-05T13:01:24.440Z,8.95
2022-10-05T13:03:57.949Z,7.10
2022-10-05T13:06:33.963Z,9.10
2022-10-05T13:09:09.121Z,6.78
2022-10-05T13:11:43.560Z,8.27
2022-10-05T13:14:11.534Z,6.93
2022-10-05T13:16:45.733Z,9.98
2022-10-05T13:19:21.428Z,7.40
2022-10-05T13:22:04.849Z,6.32
2022-10-05T13:24:59.665Z,7.20
2022-10-05T13:27:31.176Z,7.63
2022-10-05T13:30:02.535Z,7.93
2022-10-05T13:32:39.711Z,7.05
2022-10-05T13:35:25.537Z,7.28
2022-10-05T13:38:15.547Z,8.90
2022-10-05T13:41:18.981Z,6.60
2022-10-05T13:43:59.389Z,6.90
2022-10-05T13:46:37.169Z,7.85
2022-10-05T13:49:18.697Z,6.82
2022-10-05T13:51:56.308Z,11.07
2022-10-05T13:54:42.925Z,6.10
2022-10-05T13:57:30.420Z,8.57
2022-10-05T13:59:59.106Z,12.95
2022-10-05T14:02:54.467Z,12.73
2022-10-05T14:05:24.550Z,12.03
2022-10-05T14:07:56.606Z,11.75
2022-10-05T14:10:38.041Z,10.43
2022-10-05T14:13:28.541Z,8.70
2022-10-05T14:16:05.338Z,10.80
2022-10-05T14:18:34.871Z,8.10
2022-10-05T14:21:08.596Z,7.07
2022-10-05T14:23:36.781Z,6.32
2022-10-05T14:26:19.294Z,7.45
2022-10-05T14:29:03.604Z,6.97
2022-10-05T14:31:36.522Z,7.47
2022-10-05T14:34:29.233Z,7.90
2022-10-05T14:37:02.880Z,7.32
2022-10-05T14:39:34.361Z,8.18
2022-10-05T14:42:20.507Z,7.82
2022-10-05T14:45:12.481Z,7.03
2022-10-05T14:48:02.436Z,6.95
2022-10-05T14:50:31.727Z,7.00
2022-10-05T14:53:20.144Z,7.78
2022-10-05T14:56:01.383Z,7.40
2022-10-05T14:58:44.733Z,14.70
2022-10-05T15:01:18.560Z,6.40
2022-10-05T15:03:47.526Z,6.20
2022-10-05T15:06:39.500Z,7.63
2022-10-05T15:09:45.074Z,9.18
2022-10-05T15:12:14.515Z,10.47
2022-10-05T15:14:45.422Z,10.45
2022-10-05T15:17:28.372Z,7.22
2022-10-05T15:20:02.387Z,6.78
2022-10-05T15:22:54.482Z,5.38
2022-10-05T15:25:27.176Z,7.17
2022-10-05T15:28:10.530Z,7.80
2022-10-05T15:30:41.916Z,8.07
2022-10-05T15:33:22.347Z,8.63
2022-10-05T15:36:08.507Z,8.68
2022-10-05T15:38:41.458Z,6.10
2022-10-05T15:41:21.054Z,8.65
2022-10-05T15:44:09.770Z,7.03
2022-10-05T15:46:41.821Z,8.68
2022-10-05T15:49:51.705Z,10.07
2022-10-05T15:52:28.906Z,9.10
2022-10-05T15:55:18.778Z,8.32
2022-10-05T15:58:22.389Z,7.45
2022-10-05T16:01:39.320Z,8.05
2022-10-05T16:04:21.104Z,8.70
2022-10-05T16:07:39.175Z,6.77
2022-10-05T16:10:17.475Z,13.65
2022-10-05T16:13:05.141Z,13.38
2022-10-05T16:15:48.725Z,10.10
2022-10-05T16:18:21.997Z,11.82
2022-10-05T16:21:10.172Z,9.40
2022-10-05T16:24:06.380Z,9.40
2022-10-05T16:26:39.971Z,6.75
2022-10-05T16:29:11.138Z,13.13
2022-10-05T16:32:00.147Z,8.52
2022-10-05T16:34:45.249Z,10.17
2022-10-05T16:37:32.268Z,10.10
2022-10-05T16:40:19.454Z,10.68
2022-10-05T16:43:13.299Z,12.43
2022-10-05T16:45:53.462Z,11.18
2022-10-05T16:48:43.734Z,12.70
2022-10-05T16:51:27.087Z,13.50
2022-10-05T16:54:13.494Z,13.75
2022-10-05T16:56:43.752Z,11.85
2022-10-05T16:59:54.664Z,15.98
2022-10-05T17:02:35.213Z,12.33
2022-10-05T17:05:21.584Z,13.63
2022-10-05T17:08:05.924Z,10.75
2022-10-05T17:10:46.894Z,11.38
2022-10-05T17:13:32.685Z,14.82
2022-10-05T17:16:22.994Z,12.93
2022-10-05T17:19:12.361Z,10.73
2022-10-05T17:21:45.732Z,13.40
2022-10-05T17:24:34.113Z,9.95
2022-10-05T17:27:16.054Z,10.25
2022-10-05T17:29:54.315Z,11.03
2022-10-05T17:32:22.017Z,12.82
2022-10-05T17:35:01.860Z,10.95
2022-10-05T17:38:05.785Z,12.73
2022-10-05T17:40:35.569Z,13.43
2022-10-05T17:43:15.711Z,11.70
2022-10-05T17:45:43.736Z,12.77
2022-10-05T17:48:14.496Z,14.07
2022-10-05T17:51:04.968Z,13.35
2022-10-05T17:54:04.016Z,11.85
2022-10-05T17:56:47.390Z,15.13
2022-10-05T17:59:46.531Z,15.60
2022-10-05T18:02:20.143Z,15.00
2022-10-05T18:05:12.648Z,15.90
2022-10-05T18:07:40.954Z,16.67
2022-10-05T18:10:17.686Z,13.60
2022-10-05T18:13:29.996Z,14.60
2022-10-05T18:15:57.529Z,14.07
2022-10-05T18:18:43.224Z,11.38
2022-10-05T18:21:13.799Z,12.57
2022-10-05T18:23:59.544Z,12.40
2022-10-05T18:26:33.638Z,11.43
2022-10-05T18:29:53.182Z,11.35
2022-10-05T18:32:56.314Z,11.70
2022-10-05T18:35:44.326Z,11.95
2022-10-05T18:38:24.183Z,12.37
2022-10-05T18:41:21.439Z,13.85
2022-10-05T18:44:07.808Z,12.00
2022-10-05T18:46:38.550Z,11.35
2022-10-05T18:49:25.401Z,13.50
2022-10-05T18:52:01.348Z,14.73
2022-10-05T18:54:54.963Z,16.10
2022-10-05T18:57:44.030Z,15.90
2022-10-05T19:00:14.907Z,15.63
2022-10-05T19:02:58.911Z,16.23
2022-10-05T19:05:49.658Z,14.50
2022-10-05T19:08:28.358Z,15.27
2022-10-05T19:11:23.310Z,19.02
2022-10-05T19:14:12.201Z,17.17
2022-10-05T19:17:08.265Z,14.07
2022-10-05T19:19:58.622Z,17.50
2022-10-05T19:22:47.971Z,21.05
2022-10-05T19:25:27.521Z,20.30
2022-10-05T19:28:17.504Z,19.83
2022-10-05T19:30:56.200Z,16.15
2022-10-05T19:33:37.407Z,16.77
2022-10-05T19:36:21.994Z,16.65
2022-10-05T19:39:18.007Z,14.18
2022-10-05T19:42:24.809Z,19.45
2022-10-05T19:44:58.624Z,16.58
2022-10-05T19:47:41.464Z,16.90
2022-10-05T19:50:24.162Z,19.90
2022-10-05T19:52:57.676Z,16.50
2022-10-05T19:55:26.490Z,18.83
2022-10-05T19:58:00.771Z,18.98
2022-10-05T20:00:30.676Z,19.10
2022-10-05T20:03:23.610Z,16.88
2022-10-05T20:05:53.383Z,16.60
2022-10-05T20:08:21.854Z,16.80
2022-10-05T20:11:06.379Z,20.60
2022-10-05T20:13:35.499Z,13.50
2022-10-05T20:16:34.329Z,16.02
2022-10-05T20:19:24.713Z,14.73
2022-10-05T20:21:53.807Z,17.40
2022-10-05T20:24:28.107Z,14.07
2022-10-05T20:27:05.730Z,14.53
2022-10-05T20:29:35.593Z,17.83
2022-10-05T20:32:12.420Z,14.55
2022-10-05T20:34:47.238Z,13.50
2022-10-05T20:37:16.427Z,13.77
2022-10-05T20:39:44.259Z,15.90
2022-10-05T20:42:12.043Z,13.10
2022-10-05T20:44:39.436Z,13.60
2022-10-05T20:47:09.352Z,13.90
2022-10-05T20:49:38.751Z,10.88
2022-10-05T20:52:07.480Z,11.20
2022-10-05T20:54:35.436Z,12.18
2022-10-05T20:57:05.987Z,12.07
2022-10-05T20:59:33.626Z,13.18
2022-10-05T21:02:01.783Z,13.18
2022-10-05T21:04:41.505Z,14.40
2022-10-05T21:07:09.959Z,13.85
2022-10-05T21:09:39.604Z,13.63
2022-10-05T21:12:07.141Z,11.98
2022-10-05T21:14:36.455Z,12.98
2022-10-05T21:17:07.512Z,14.77
2022-10-05T21:19:39.555Z,12.68
2022-10-05T21:22:07.994Z,12.68
2022-10-05T21:24:39.355Z,10.88
2022-10-05T21:27:07.175Z,11.93
2022-10-05T21:29:35.590Z,12.57
2022-10-05T21:32:03.631Z,11.75
2022-10-05T21:34:31.339Z,10.27
2022-10-05T21:36:58.945Z,11.63
2022-10-05T21:39:27.047Z,12.70
2022-10-05T21:41:54.580Z,11.00
2022-10-05T21:44:22.097Z,12.35
2022-10-05T21:46:49.546Z,13.50
2022-10-05T21:49:19.629Z,11.90
2022-10-05T21:51:48.038Z,10.55
2022-10-05T21:54:17.009Z,11.13
2022-10-05T21:56:46.236Z,9.77
2022-10-05T21:59:14.846Z,9.98
2022-10-05T22:01:42.494Z,9.93
2022-10-05T22:04:09.947Z,12.50
2022-10-05T22:06:37.368Z,11.83
2022-10-05T22:09:05.042Z,13.35
2022-10-05T22:11:32.794Z,16.52
2022-10-05T22:14:02.985Z,16.08
2022-10-05T22:16:33.208Z,11.13
2022-10-05T22:19:04.924Z,10.77
2022-10-05T22:21:38.101Z,10.13
2022-10-05T22:24:06.287Z,13.60
2022-10-05T22:26:34.937Z,13.57
2022-10-05T22:29:02.617Z,9.40
2022-10-05T22:31:30.466Z,8.93
2022-10-05T22:33:58.078Z,10.32
2022-10-05T22:36:25.466Z,9.63
2022-10-05T22:38:53.099Z,7.93
2022-10-05T22:41:20.878Z,9.15
2022-10-05T22:43:50.450Z,10.30
2022-10-05T22:46:18.266Z,10.52
2022-10-05T22:48:46.076Z,9.88
2022-10-05T22:51:13.789Z,10.40
2022-10-05T22:53:41.260Z,16.38
2022-10-05T22:56:10.494Z,14.27
2022-10-05T22:58:38.031Z,13.90
2022-10-05T23:01:07.407Z,11.73
2022-10-05T23:03:35.289Z,13.15
2022-10-05T23:06:04.753Z,13.82
2022-10-05T23:08:32.935Z,10.50
2022-10-05T23:11:10.770Z,8.88
2022-10-05T23:13:38.807Z,10.88
2022-10-05T23:16:14.028Z,9.48
2022-10-05T23:18:41.963Z,8.63
2022-10-05T23:21:09.934Z,12.63
2022-10-05T23:23:40.654Z,10.82
2022-10-05T23:26:09.034Z,10.60
2022-10-05T23:28:36.852Z,10.35
2022-10-05T23:31:05.965Z,9.25
2022-10-05T23:33:34.076Z,10.60
2022-10-05T23:36:18.594Z,9.18
2022-10-05T23:38:46.193Z,10.38
2022-10-05T23:41:13.713Z,10.35
2022-10-05T23:43:41.461Z,10.05
2022-10-05T23:46:09.099Z,10.77
2022-10-05T23:48:40.068Z,10.27
2022-10-05T23:51:08.795Z,10.57
2022-10-05T23:53:36.303Z,13.18
2022-10-05T23:56:03.861Z,10.00
2022-10-05T23:58:31.553Z,9.10
